createdAt,value
2022-08-05T00:01:35.459Z,100.00
2022-08-05T00:04:05.214Z,100.00
2022-08-05T00:06:35.887Z,100.00
2022-08-05T00:09:04.007Z,100.00
2022-08-05T00:11:35.182Z,100.00
2022-08-05T00:14:17.019Z,100.00
2022-08-05T00:16:52.497Z,100.00
2022-08-05T00:19:25.059Z,100.00
2022-08-05T00:22:00.822Z,100.00
2022-08-05T00:24:31.218Z,100.00
2022-08-05T00:26:59.039Z,100.00
2022-08-05T00:29:26.162Z,100.00
2022-08-05T00:32:13.364Z,100.00
2022-08-05T00:35:04.446Z,100.00
2022-08-05T00:37:50.330Z,100.00
2022-08-05T00:40:27.965Z,100.00
2022-08-05T00:43:00.473Z,100.00
2022-08-05T00:45:37.821Z,100.00
2022-08-05T00:48:07.504Z,100.00
2022-08-05T00:50:34.650Z,100.00
2022-08-05T00:53:02.298Z,100.00
2022-08-05T00:55:41.993Z,100.00
2022-08-05T00:58:13.901Z,100.00
2022-08-05T01:00:42.273Z,100.00
2022-08-05T01:03:10.050Z,100.00
2022-08-05T01:05:39.467Z,100.00
2022-08-05T01:08:39.201Z,100.00
2022-08-05T01:11:02.308Z,100.00
2022-08-05T01:13:57.332Z,100.00
2022-08-05T01:16:38.391Z,100.00
2022-08-05T01:20:02.240Z,100.00
2022-08-05T01:23:15.218Z,100.00
2022-08-05T01:26:01.523Z,100.00
2022-08-05T01:28:36.985Z,100.00
2022-08-05T01:31:44.544Z,100.00
2022-08-05T01:34:26.781Z,100.00
2022-08-05T01:37:03.749Z,100.00
2022-08-05T01:39:46.274Z,100.00
2022-08-05T01:42:17.085Z,100.00
2022-08-05T01:44:45.702Z,100.00
2022-08-05T01:47:22.126Z,100.00
2022-08-05T01:50:02.078Z,100.00
2022-08-05T01:52:32.429Z,100.00
2022-08-05T01:55:04.476Z,100.00
2022-08-05T01:58:13.082Z,100.00
2022-08-05T02:00:21.086Z,100.00
2022-08-05T02:03:23.978Z,100.00
2022-08-05T02:05:53.689Z,100.00
2022-08-05T02:08:30.949Z,100.00
2022-08-05T02:11:11.964Z,100.00
2022-08-05T02:13:53.232Z,100.00
2022-08-05T02:16:41.963Z,100.00
2022-08-05T02:19:19.458Z,100.00
2022-08-05T02:22:06.441Z,100.00
2022-08-05T02:24:38.230Z,100.00
2022-08-05T02:27:10.139Z,100.00
2022-08-05T02:29:59.954Z,100.00
2022-08-05T02:32:30.817Z,100.00
2022-08-05T02:35:00.550Z,100.00
2022-08-05T02:37:38.380Z,100.00
2022-08-05T02:40:06.673Z,100.00
2022-08-05T02:42:38.205Z,100.00
2022-08-05T02:45:06.969Z,100.00
2022-08-05T02:48:07.683Z,100.00
2022-08-05T02:50:23.260Z,100.00
2022-08-05T02:52:50.844Z,100.00
2022-08-05T02:55:17.777Z,100.00
2022-08-05T02:58:11.015Z,100.00
2022-08-05T03:00:40.496Z,100.00
2022-08-05T03:03:16.593Z,100.00
2022-08-05T03:06:54.785Z,100.00
2022-08-05T03:08:30.957Z,100.00
2022-08-05T03:11:53.367Z,100.00
2022-08-05T03:13:52.069Z,100.00
2022-08-05T03:16:29.511Z,100.00
2022-08-05T03:18:58.012Z,100.00
2022-08-05T03:21:24.490Z,100.00
2022-08-05T03:23:56.824Z,100.00
2022-08-05T03:26:31.342Z,100.00
2022-08-05T03:28:59.499Z,100.00
2022-08-05T03:31:56.019Z,100.00
2022-08-05T03:34:13.159Z,100.00
2022-08-05T03:36:40.720Z,100.00
2022-08-05T03:39:08.184Z,100.00
2022-08-05T03:41:45.457Z,100.00
2022-08-05T03:44:13.524Z,100.00
2022-08-05T03:46:46.691Z,100.00
2022-08-05T03:49:13.143Z,100.00
2022-08-05T03:52:38.088Z,100.00
2022-08-05T03:55:00.516Z,100.00
2022-08-05T03:57:46.118Z,100.00
2022-08-05T04:00:16.699Z,100.00
2022-08-05T04:02:58.753Z,100.00
2022-08-05T04:05:33.608Z,100.00
2022-08-05T04:08:30.106Z,100.00
2022-08-05T04:10:54.351Z,100.00
2022-08-05T04:13:21.744Z,100.00
2022-08-05T04:15:52.793Z,100.00
2022-08-05T04:18:31.539Z,100.00
2022-08-05T04:20:58.309Z,100.00
2022-08-05T04:23:57.362Z,100.00
2022-08-05T04:26:14.635Z,100.00
2022-08-05T04:28:50.772Z,100.00
2022-08-05T04:31:18.201Z,100.00
2022-08-05T04:34:17.483Z,100.00
2022-08-05T04:36:49.548Z,100.00
2022-08-05T04:39:17.970Z,100.00
2022-08-05T04:41:44.891Z,100.00
2022-08-05T04:44:12.363Z,100.00
2022-08-05T04:46:38.833Z,100.00
2022-08-05T04:49:07.555Z,100.00
2022-08-05T04:51:41.243Z,100.00
2022-08-05T04:54:09.183Z,100.00
2022-08-05T04:56:37.374Z,100.00
2022-08-05T04:59:21.387Z,100.00
2022-08-05T05:02:06.927Z,100.00
2022-08-05T05:04:38.513Z,100.00
2022-08-05T05:07:15.924Z,100.00
2022-08-05T05:09:43.848Z,100.00
2022-08-05T05:12:11.515Z,100.00
2022-08-05T05:14:38.233Z,100.00
2022-08-05T05:17:19.897Z,100.00
2022-08-05T05:19:50.254Z,100.00
2022-08-05T05:22:24.258Z,100.00
2022-08-05T05:24:57.713Z,100.00
2022-08-05T05:27:44.195Z,100.00
2022-08-05T05:30:15.548Z,100.00
2022-08-05T05:32:55.930Z,100.00
2022-08-05T05:35:22.836Z,100.00
2022-08-05T05:38:01.437Z,100.00
2022-08-05T05:40:30.031Z,100.00
2022-08-05T05:42:59.307Z,100.00
2022-08-05T05:45:26.377Z,100.00
2022-08-05T05:48:07.047Z,100.00
2022-08-05T05:50:42.568Z,100.00
2022-08-05T05:53:21.637Z,100.00
2022-08-05T05:55:52.141Z,100.00
2022-08-05T05:58:31.691Z,100.00
2022-08-05T06:01:12.139Z,100.00
2022-08-05T06:04:01.415Z,100.00
2022-08-05T06:06:28.033Z,100.00
2022-08-05T06:08:58.166Z,100.00
2022-08-05T06:11:24.754Z,100.00
2022-08-05T06:13:53.938Z,100.00
2022-08-05T06:16:28.240Z,100.00
2022-08-05T06:19:00.807Z,100.00
2022-08-05T06:21:37.641Z,100.00
2022-08-05T06:24:07.743Z,100.00
2022-08-05T06:26:38.072Z,100.00
2022-08-05T06:29:23.773Z,100.00
2022-08-05T06:31:51.061Z,100.00
2022-08-05T06:34:20.154Z,100.00
2022-08-05T06:36:58.007Z,100.00
2022-08-05T06:39:27.323Z,100.00
2022-08-05T06:41:56.303Z,100.00
2022-08-05T06:44:25.206Z,100.00
2022-08-05T06:46:52.660Z,100.00
2022-08-05T06:50:00.686Z,100.00
2022-08-05T06:52:07.518Z,100.00
2022-08-05T06:54:53.993Z,100.00
2022-08-05T06:57:57.143Z,100.00
2022-08-05T07:00:07.881Z,100.00
2022-08-05T07:02:43.451Z,100.00
2022-08-05T07:05:14.258Z,100.00
2022-08-05T07:07:45.358Z,100.00
2022-08-05T07:10:14.984Z,100.00
2022-08-05T07:12:43.278Z,100.00
2022-08-05T07:15:34.062Z,100.00
2022-08-05T07:18:08.924Z,100.00
2022-08-05T07:20:37.168Z,100.00
2022-08-05T07:23:06.532Z,100.00
2022-08-05T07:25:55.205Z,100.00
2022-08-05T07:28:19.544Z,100.00
2022-08-05T07:30:50.388Z,100.00
2022-08-05T07:33:19.637Z,100.00
2022-08-05T07:36:19.993Z,100.00
2022-08-05T07:38:46.975Z,100.00
2022-08-05T07:42:14.418Z,100.00
2022-08-05T07:44:06.442Z,100.00
2022-08-05T07:46:41.097Z,100.00
2022-08-05T07:49:14.792Z,100.00
2022-08-05T07:51:54.674Z,100.00
2022-08-05T07:54:26.483Z,100.00
2022-08-05T07:57:13.812Z,100.00
2022-08-05T07:59:43.427Z,100.00
2022-08-05T08:02:16.576Z,100.00
2022-08-05T08:04:48.327Z,100.00
2022-08-05T08:07:17.876Z,100.00
2022-08-05T08:09:45.766Z,100.00
2022-08-05T08:12:48.412Z,100.00
2022-08-05T08:15:02.135Z,100.00
2022-08-05T08:17:29.503Z,100.00
2022-08-05T08:20:23.031Z,100.00
2022-08-05T08:22:43.392Z,100.00
2022-08-05T08:25:15.669Z,100.00
2022-08-05T08:27:47.956Z,99.13
2022-08-05T08:30:27.602Z,100.00
2022-08-05T08:33:02.486Z,100.00
2022-08-05T08:35:35.086Z,100.00
2022-08-05T08:38:11.805Z,100.00
2022-08-05T08:40:45.691Z,100.00
2022-08-05T08:45:04.465Z,100.00
2022-08-05T08:46:06.178Z,99.53
2022-08-05T08:49:00.965Z,97.06
2022-08-05T08:52:03.455Z,100.00
2022-08-05T08:54:13.771Z,95.60
2022-08-05T08:56:47.378Z,95.83
2022-08-05T08:59:19.378Z,89.81
2022-08-05T09:01:56.973Z,84.26
2022-08-05T09:04:30.630Z,85.98
2022-08-05T09:06:57.609Z,81.81
2022-08-05T09:09:24.969Z,78.24
2022-08-05T09:11:54.166Z,75.73
2022-08-05T09:14:57.231Z,82.61
2022-08-05T09:17:40.099Z,83.53
2022-08-05T09:20:02.530Z,86.80
2022-08-05T09:23:23.742Z,92.18
2022-08-05T09:26:10.578Z,89.94
2022-08-05T09:28:48.058Z,86.42
2022-08-05T09:31:22.174Z,82.15
2022-08-05T09:34:09.755Z,78.58
2022-08-05T09:36:56.390Z,79.14
2022-08-05T09:39:41.228Z,83.37
2022-08-05T09:42:23.392Z,87.83
2022-08-05T09:44:56.201Z,91.82
2022-08-05T09:47:25.671Z,92.98
2022-08-05T09:50:01.996Z,98.22
2022-08-05T09:52:35.001Z,100.00
2022-08-05T09:55:55.560Z,100.00
2022-08-05T09:57:49.265Z,98.75
2022-08-05T10:00:22.679Z,94.98
2022-08-05T10:02:52.695Z,93.77
2022-08-05T10:05:32.934Z,93.95
2022-08-05T10:08:35.406Z,96.62
2022-08-05T10:10:54.651Z,98.10
2022-08-05T10:13:31.647Z,89.56
2022-08-05T10:16:30.657Z,89.93
2022-08-05T10:18:59.162Z,90.11
2022-08-05T10:21:27.218Z,90.24
2022-08-05T10:24:06.274Z,92.18
2022-08-05T10:26:37.271Z,98.74
2022-08-05T10:29:20.343Z,100.00
2022-08-05T10:32:53.123Z,100.00
2022-08-05T10:34:40.721Z,100.00
2022-08-05T10:37:07.924Z,100.00
2022-08-05T10:39:59.525Z,100.00
2022-08-05T10:42:33.574Z,100.00
2022-08-05T10:45:02.005Z,100.00
2022-08-05T10:48:30.341Z,100.00
2022-08-05T10:50:57.961Z,100.00
2022-08-05T10:53:42.606Z,100.00
2022-08-05T10:56:25.057Z,100.00
2022-08-05T10:58:55.510Z,100.00
2022-08-05T11:02:03.735Z,100.00
2022-08-05T11:04:27.864Z,100.00
2022-08-05T11:06:57.220Z,98.43
2022-08-05T11:09:39.327Z,94.83
2022-08-05T11:12:24.333Z,93.06
2022-08-05T11:15:19.596Z,98.67
2022-08-05T11:17:57.369Z,94.61
2022-08-05T11:20:32.831Z,97.88
2022-08-05T11:23:02.229Z,92.40
2022-08-05T11:26:04.109Z,98.88
2022-08-05T11:28:24.190Z,96.63
2022-08-05T11:30:55.991Z,96.13
2022-08-05T11:33:45.986Z,94.79
2022-08-05T11:36:33.909Z,92.11
2022-08-05T11:39:01.668Z,93.64
2022-08-05T11:41:58.072Z,95.90
2022-08-05T11:44:40.407Z,97.20
2022-08-05T11:47:13.783Z,94.47
2022-08-05T11:49:42.975Z,98.14
2022-08-05T11:52:11.798Z,96.29
2022-08-05T11:54:40.558Z,88.92
2022-08-05T11:57:25.983Z,84.29
2022-08-05T11:59:55.553Z,83.80
2022-08-05T12:02:30.616Z,84.25
2022-08-05T12:05:00.281Z,82.56
2022-08-05T12:08:08.296Z,83.58
2022-08-05T12:10:38.552Z,82.78
2022-08-05T12:13:15.865Z,83.58
2022-08-05T12:15:49.752Z,81.56
2022-08-05T12:18:20.607Z,75.33
2022-08-05T12:20:50.742Z,77.53
2022-08-05T12:23:17.202Z,74.01
2022-08-05T12:25:56.709Z,75.34
2022-08-05T12:28:35.239Z,76.15
2022-08-05T12:31:04.361Z,82.04
2022-08-05T12:33:38.525Z,79.24
2022-08-05T12:36:07.952Z,79.49
2022-08-05T12:38:37.824Z,79.30
2022-08-05T12:41:13.176Z,78.25
2022-08-05T12:43:57.261Z,77.44
2022-08-05T12:46:31.252Z,77.63
2022-08-05T12:49:13.535Z,74.41
2022-08-05T12:52:12.569Z,76.05
2022-08-05T12:54:35.446Z,75.74
2022-08-05T12:57:09.750Z,74.71
2022-08-05T13:01:57.597Z,77.51
2022-08-05T13:02:39.888Z,78.31
2022-08-05T13:05:07.683Z,75.82
2022-08-05T13:10:21.499Z,76.26
2022-08-05T13:12:51.247Z,81.91
2022-08-05T13:15:35.998Z,78.86
2022-08-05T13:18:19.724Z,83.03
2022-08-05T13:20:49.187Z,84.63
2022-08-05T13:23:18.090Z,82.56
2022-08-05T13:25:52.623Z,83.12
2022-08-05T13:28:27.061Z,80.45
2022-08-05T13:30:53.725Z,75.09
2022-08-05T13:34:22.158Z,72.62
2022-08-05T13:36:09.387Z,65.64
2022-08-05T13:38:42.324Z,64.69
2022-08-05T13:41:09.359Z,68.31
2022-08-05T13:43:45.197Z,65.14
2022-08-05T13:46:50.701Z,67.38
2022-08-05T13:49:10.468Z,84.68
2022-08-05T13:51:41.644Z,89.67
2022-08-05T13:54:15.221Z,96.09
2022-08-05T13:56:45.199Z,91.00
2022-08-05T13:59:23.780Z,88.57
2022-08-05T14:01:58.146Z,91.48
2022-08-05T14:04:33.768Z,90.01
2022-08-05T14:07:25.027Z,83.10
2022-08-05T14:09:46.766Z,80.67
2022-08-05T14:12:17.433Z,70.67
2022-08-05T14:14:45.496Z,73.93
2022-08-05T14:17:28.247Z,77.94
2022-08-05T14:20:00.983Z,78.15
2022-08-05T14:22:34.552Z,77.94
2022-08-05T14:25:01.951Z,80.18
2022-08-05T14:27:32.707Z,87.70
2022-08-05T14:29:59.205Z,86.90
2022-08-05T14:32:27.733Z,81.44
2022-08-05T14:34:54.790Z,75.99
2022-08-05T14:37:47.321Z,76.35
2022-08-05T14:40:14.263Z,74.54
2022-08-05T14:42:44.094Z,77.48
2022-08-05T14:45:10.738Z,82.41
2022-08-05T14:48:03.603Z,86.53
2022-08-05T14:50:25.177Z,85.03
2022-08-05T14:52:57.851Z,81.22
2022-08-05T14:55:28.644Z,84.90
2022-08-05T14:58:11.811Z,91.37
2022-08-05T15:00:58.250Z,88.76
2022-08-05T15:03:33.799Z,87.31
2022-08-05T15:06:07.402Z,88.20
2022-08-05T15:09:01.484Z,85.22
2022-08-05T15:11:52.942Z,87.23
2022-08-05T15:14:33.622Z,91.81
2022-08-05T15:16:59.797Z,89.38
2022-08-05T15:19:26.319Z,85.99
2022-08-05T15:21:52.742Z,86.33
2022-08-05T15:24:19.182Z,86.62
2022-08-05T15:26:46.530Z,89.87
2022-08-05T15:29:15.108Z,100.00
2022-08-05T15:31:41.741Z,97.54
2022-08-05T15:34:31.460Z,97.59
2022-08-05T15:36:54.681Z,93.32
2022-08-05T15:41:00.148Z,93.50
2022-08-05T15:42:50.388Z,95.44
2022-08-05T15:44:54.115Z,93.71
2022-08-05T15:47:22.095Z,97.88
2022-08-05T15:49:56.770Z,99.35
2022-08-05T15:52:29.482Z,99.15
2022-08-05T15:55:16.017Z,100.00
2022-08-05T15:57:43.281Z,98.44
2022-08-05T16:00:12.263Z,96.21
2022-08-05T16:02:43.423Z,93.40
2022-08-05T16:05:11.139Z,95.16
2022-08-05T16:07:37.841Z,93.90
2022-08-05T16:10:05.006Z,88.78
2022-08-05T16:12:37.943Z,88.71
2022-08-05T16:15:04.842Z,90.39
2022-08-05T16:17:31.451Z,94.13
2022-08-05T16:20:05.041Z,93.59
2022-08-05T16:22:38.327Z,95.35
2022-08-05T16:25:08.009Z,95.02
2022-08-05T16:27:59.988Z,97.65
2022-08-05T16:30:26.160Z,98.86
2022-08-05T16:32:53.225Z,100.00
2022-08-05T16:35:27.674Z,98.39
2022-08-05T16:38:02.635Z,98.13
2022-08-05T16:40:41.200Z,95.77
2022-08-05T16:43:07.708Z,100.00
2022-08-05T16:46:04.888Z,100.00
2022-08-05T16:48:25.332Z,100.00
2022-08-05T16:50:53.042Z,100.00
2022-08-05T16:53:22.481Z,96.39
2022-08-05T16:55:49.829Z,93.21
2022-08-05T16:58:19.817Z,92.67
2022-08-05T17:00:46.991Z,92.60
2022-08-05T17:03:20.109Z,95.00
2022-08-05T17:05:51.727Z,95.19
2022-08-05T17:08:36.385Z,96.17
2022-08-05T17:11:08.215Z,98.00
2022-08-05T17:13:37.657Z,99.98
2022-08-05T17:16:28.143Z,100.00
2022-08-05T17:18:54.875Z,100.00
2022-08-05T17:21:21.368Z,100.00
2022-08-05T17:24:04.370Z,100.00
2022-08-05T17:26:37.215Z,100.00
2022-08-05T17:29:09.946Z,100.00
2022-08-05T17:31:41.297Z,100.00
2022-08-05T17:34:30.274Z,100.00
2022-08-05T17:36:59.998Z,100.00
2022-08-05T17:39:34.210Z,100.00
2022-08-05T17:42:28.612Z,100.00
2022-08-05T17:44:50.875Z,100.00
2022-08-05T17:47:22.032Z,100.00
2022-08-05T17:49:51.633Z,100.00
2022-08-05T17:52:27.759Z,100.00
2022-08-05T17:54:54.910Z,100.00
2022-08-05T17:57:21.950Z,100.00
2022-08-05T18:00:03.457Z,100.00
2022-08-05T18:02:32.665Z,100.00
2022-08-05T18:04:59.342Z,100.00
2022-08-05T18:07:32.872Z,100.00
2022-08-05T18:10:10.432Z,100.00
2022-08-05T18:12:37.217Z,100.00
2022-08-05T18:15:04.738Z,100.00
2022-08-05T18:18:00.794Z,100.00
2022-08-05T18:20:18.051Z,100.00
2022-08-05T18:22:54.721Z,100.00
2022-08-05T18:25:23.861Z,100.00
2022-08-05T18:27:52.377Z,100.00
2022-08-05T18:30:19.561Z,100.00
2022-08-05T18:33:00.463Z,100.00
2022-08-05T18:36:01.254Z,100.00
2022-08-05T18:38:16.435Z,100.00
2022-08-05T18:41:56.684Z,100.00
2022-08-05T18:43:38.285Z,100.00
2022-08-05T18:46:10.162Z,100.00
2022-08-05T18:48:41.706Z,100.00
2022-08-05T18:52:04.847Z,100.00
2022-08-05T18:53:55.627Z,100.00
2022-08-05T18:56:25.156Z,100.00
2022-08-05T18:58:54.739Z,100.00
2022-08-05T19:01:21.511Z,100.00
2022-08-05T19:04:12.259Z,100.00
2022-08-05T19:06:45.427Z,100.00
2022-08-05T19:09:12.334Z,100.00
2022-08-05T19:12:00.726Z,100.00
2022-08-05T19:14:59.450Z,100.00
2022-08-05T19:17:12.080Z,100.00
2022-08-05T19:19:46.350Z,100.00
2022-08-05T19:22:17.348Z,100.00
2022-08-05T19:24:54.223Z,100.00
2022-08-05T19:27:22.877Z,100.00
2022-08-05T19:29:49.629Z,100.00
2022-08-05T19:32:16.063Z,100.00
2022-08-05T19:34:54.533Z,100.00
2022-08-05T19:37:22.113Z,100.00
2022-08-05T19:39:57.624Z,100.00
2022-08-05T19:42:36.020Z,100.00
2022-08-05T19:45:06.023Z,100.00
2022-08-05T19:47:32.974Z,100.00
2022-08-05T19:50:00.486Z,100.00
2022-08-05T19:52:31.172Z,100.00
2022-08-05T19:55:00.473Z,100.00
2022-08-05T19:57:47.463Z,100.00
2022-08-05T20:00:13.813Z,100.00
2022-08-05T20:02:40.239Z,100.00
2022-08-05T20:05:09.703Z,100.00
2022-08-05T20:07:47.795Z,100.00
2022-08-05T20:10:15.915Z,100.00
2022-08-05T20:12:47.496Z,100.00
2022-08-05T20:15:48.011Z,100.00
2022-08-05T20:18:10.792Z,100.00
2022-08-05T20:20:55.054Z,100.00
2022-08-05T20:23:23.178Z,100.00
2022-08-05T20:25:52.302Z,100.00
2022-08-05T20:28:19.896Z,100.00
2022-08-05T20:30:46.410Z,100.00
2022-08-05T20:33:15.868Z,100.00
2022-08-05T20:35:45.747Z,100.00
2022-08-05T20:38:20.051Z,100.00
2022-08-05T20:40:53.219Z,100.00
2022-08-05T20:43:57.423Z,100.00
2022-08-05T20:46:08.536Z,100.00
2022-08-05T20:48:38.733Z,100.00
2022-08-05T20:51:08.860Z,100.00
2022-08-05T20:53:36.885Z,100.00
2022-08-05T20:56:09.553Z,100.00
2022-08-05T20:58:36.862Z,100.00
2022-08-05T21:01:04.091Z,100.00
2022-08-05T21:03:34.624Z,100.00
2022-08-05T21:06:01.896Z,100.00
2022-08-05T21:08:35.822Z,100.00
2022-08-05T21:11:51.577Z,100.00
2022-08-05T21:13:59.754Z,100.00
2022-08-05T21:16:29.949Z,100.00
2022-08-05T21:19:01.434Z,100.00
2022-08-05T21:21:39.230Z,100.00
2022-08-05T21:24:06.750Z,100.00
2022-08-05T21:26:33.787Z,100.00
2022-08-05T21:29:03.639Z,100.00
2022-08-05T21:31:41.340Z,100.00
2022-08-05T21:34:08.447Z,100.00
2022-08-05T21:36:37.247Z,100.00
2022-08-05T21:39:03.844Z,100.00
2022-08-05T21:41:33.922Z,100.00
2022-08-05T21:44:04.336Z,100.00
2022-08-05T21:46:34.538Z,100.00
2022-08-05T21:49:01.863Z,100.00
2022-08-05T21:52:22.133Z,100.00
2022-08-05T21:54:14.800Z,100.00
2022-08-05T21:56:44.308Z,100.00
2022-08-05T21:59:24.056Z,100.00
2022-08-05T22:01:51.966Z,100.00
2022-08-05T22:04:21.171Z,100.00
2022-08-05T22:06:52.678Z,100.00
2022-08-05T22:09:21.133Z,100.00
2022-08-05T22:11:48.350Z,100.00
2022-08-05T22:14:35.593Z,100.00
2022-08-05T22:17:05.324Z,100.00
2022-08-05T22:20:00.643Z,100.00
2022-08-05T22:22:28.280Z,100.00
2022-08-05T22:24:59.026Z,100.00
2022-08-05T22:27:25.668Z,100.00
2022-08-05T22:30:14.096Z,100.00
2022-08-05T22:32:42.327Z,100.00
2022-08-05T22:35:12.790Z,100.00
2022-08-05T22:37:58.790Z,100.00
2022-08-05T22:40:26.513Z,100.00
2022-08-05T22:42:58.037Z,100.00
2022-08-05T22:45:24.882Z,100.00
2022-08-05T22:47:55.327Z,100.00
2022-08-05T22:50:26.948Z,100.00
2022-08-05T22:52:55.340Z,100.00
2022-08-05T22:55:23.337Z,100.00
2022-08-05T22:57:53.947Z,100.00
2022-08-05T23:00:23.107Z,100.00
2022-08-05T23:02:51.367Z,100.00
2022-08-05T23:05:18.412Z,100.00
2022-08-05T23:07:48.543Z,100.00
2022-08-05T23:10:20.230Z,100.00
2022-08-05T23:12:55.200Z,100.00
2022-08-05T23:15:29.807Z,100.00
2022-08-05T23:18:03.625Z,100.00
2022-08-05T23:20:36.997Z,100.00
2022-08-05T23:23:05.830Z,100.00
2022-08-05T23:25:51.408Z,100.00
2022-08-05T23:28:20.818Z,100.00
2022-08-05T23:30:53.546Z,100.00
2022-08-05T23:33:26.100Z,100.00
2022-08-05T23:36:10.168Z,100.00
2022-08-05T23:38:37.010Z,100.00
2022-08-05T23:41:03.434Z,100.00
2022-08-05T23:44:03.203Z,100.00
2022-08-05T23:46:21.040Z,100.00
2022-08-05T23:49:00.305Z,100.00
2022-08-05T23:51:32.594Z,100.00
2022-08-05T23:54:00.981Z,100.00
2022-08-05T23:56:27.820Z,100.00
2022-08-05T23:58:54.245Z,100.00
